sensor_id;sensor_type;location;lat;lon;timestamp;temperature;humidity
41437;DHT22;27178;49.460;10.850;2022-08-14T00:02:15;26.00;49.40
41437;DHT22;27178;49.460;10.850;2022-08-14T00:04:45;26.00;49.40
41437;DHT22;27178;49.460;10.850;2022-08-14T00:07:13;26.00;49.50
41437;DHT22;27178;49.460;10.850;2022-08-14T00:09:42;25.90;49.40
41437;DHT22;27178;49.460;10.850;2022-08-14T00:12:34;25.90;49.50
41437;DHT22;27178;49.460;10.850;2022-08-14T00:15:09;25.90;49.60
41437;DHT22;27178;49.460;10.850;2022-08-14T00:17:41;25.90;49.70
41437;DHT22;27178;49.460;10.850;2022-08-14T00:20:20;25.90;49.70
41437;DHT22;27178;49.460;10.850;2022-08-14T00:23:03;25.90;49.70
41437;DHT22;27178;49.460;10.850;2022-08-14T00:25:45;25.90;49.90
41437;DHT22;27178;49.460;10.850;2022-08-14T00:28:26;25.90;49.90
41437;DHT22;27178;49.460;10.850;2022-08-14T00:31:01;25.80;50.00
41437;DHT22;27178;49.460;10.850;2022-08-14T00:33:31;25.80;49.90
41437;DHT22;27178;49.460;10.850;2022-08-14T00:36:20;25.70;50.00
41437;DHT22;27178;49.460;10.850;2022-08-14T00:39:11;25.70;50.10
41437;DHT22;27178;49.460;10.850;2022-08-14T00:41:44;25.60;50.10
41437;DHT22;27178;49.460;10.850;2022-08-14T00:44:15;25.60;50.30
41437;DHT22;27178;49.460;10.850;2022-08-14T00:46:57;25.60;50.40
41437;DHT22;27178;49.460;10.850;2022-08-14T00:49:26;25.50;50.30
41437;DHT22;27178;49.460;10.850;2022-08-14T00:51:56;25.50;50.40
41437;DHT22;27178;49.460;10.850;2022-08-14T00:54:25;25.50;50.50
41437;DHT22;27178;49.460;10.850;2022-08-14T00:56:55;25.40;50.60
41437;DHT22;27178;49.460;10.850;2022-08-14T00:59:27;25.40;50.70
41437;DHT22;27178;49.460;10.850;2022-08-14T01:01:58;25.40;50.90
41437;DHT22;27178;49.460;10.850;2022-08-14T01:04:28;25.30;50.80
41437;DHT22;27178;49.460;10.850;2022-08-14T01:07:18;25.30;50.80
41437;DHT22;27178;49.460;10.850;2022-08-14T01:09:49;25.30;50.90
41437;DHT22;27178;49.460;10.850;2022-08-14T01:12:20;25.30;51.00
41437;DHT22;27178;49.460;10.850;2022-08-14T01:14:57;25.30;51.00
41437;DHT22;27178;49.460;10.850;2022-08-14T01:17:30;25.30;51.10
41437;DHT22;27178;49.460;10.850;2022-08-14T01:20:16;25.30;51.20
41437;DHT22;27178;49.460;10.850;2022-08-14T01:23:10;25.30;51.10
41437;DHT22;27178;49.460;10.850;2022-08-14T01:25:45;25.20;51.20
41437;DHT22;27178;49.460;10.850;2022-08-14T01:28:14;25.20;51.20
41437;DHT22;27178;49.460;10.850;2022-08-14T01:31:05;25.20;51.30
41437;DHT22;27178;49.460;10.850;2022-08-14T01:33:35;25.20;51.30
41437;DHT22;27178;49.460;10.850;2022-08-14T01:36:32;25.10;51.30
41437;DHT22;27178;49.460;10.850;2022-08-14T01:39:08;25.10;51.40
41437;DHT22;27178;49.460;10.850;2022-08-14T01:41:40;25.10;51.60
41437;DHT22;27178;49.460;10.850;2022-08-14T01:44:11;25.00;51.50
41437;DHT22;27178;49.460;10.850;2022-08-14T01:47:01;25.00;51.70
41437;DHT22;27178;49.460;10.850;2022-08-14T01:49:32;25.00;51.60
41437;DHT22;27178;49.460;10.850;2022-08-14T01:52:12;25.00;51.60
41437;DHT22;27178;49.460;10.850;2022-08-14T01:55:03;24.90;51.60
41437;DHT22;27178;49.460;10.850;2022-08-14T01:57:34;24.90;51.70
41437;DHT22;27178;49.460;10.850;2022-08-14T02:00:24;24.90;51.90
41437;DHT22;27178;49.460;10.850;2022-08-14T02:02:54;24.90;51.80
41437;DHT22;27178;49.460;10.850;2022-08-14T02:05:24;24.80;51.90
41437;DHT22;27178;49.460;10.850;2022-08-14T02:08:05;24.80;52.10
41437;DHT22;27178;49.460;10.850;2022-08-14T02:10:37;24.80;52.10
41437;DHT22;27178;49.460;10.850;2022-08-14T02:13:14;24.80;52.20
41437;DHT22;27178;49.460;10.850;2022-08-14T02:15:45;24.80;52.20
41437;DHT22;27178;49.460;10.850;2022-08-14T02:18:16;24.80;52.30
41437;DHT22;27178;49.460;10.850;2022-08-14T02:20:45;24.80;52.30
41437;DHT22;27178;49.460;10.850;2022-08-14T02:23:17;24.70;52.30
41437;DHT22;27178;49.460;10.850;2022-08-14T02:25:59;24.70;52.40
41437;DHT22;27178;49.460;10.850;2022-08-14T02:28:50;24.70;52.40
41437;DHT22;27178;49.460;10.850;2022-08-14T02:31:26;24.60;52.50
41437;DHT22;27178;49.460;10.850;2022-08-14T02:34:12;24.70;52.60
41437;DHT22;27178;49.460;10.850;2022-08-14T02:36:52;24.60;52.50
41437;DHT22;27178;49.460;10.850;2022-08-14T02:39:35;24.60;52.60
41437;DHT22;27178;49.460;10.850;2022-08-14T02:42:07;24.50;52.80
41437;DHT22;27178;49.460;10.850;2022-08-14T02:44:40;24.50;52.70
41437;DHT22;27178;49.460;10.850;2022-08-14T02:47:16;24.50;52.70
41437;DHT22;27178;49.460;10.850;2022-08-14T02:49:47;24.50;52.70
41437;DHT22;27178;49.460;10.850;2022-08-14T02:52:23;24.50;52.80
41437;DHT22;27178;49.460;10.850;2022-08-14T02:55:12;24.50;52.80
41437;DHT22;27178;49.460;10.850;2022-08-14T02:57:48;24.40;52.80
41437;DHT22;27178;49.460;10.850;2022-08-14T03:00:31;24.40;52.90
41437;DHT22;27178;49.460;10.850;2022-08-14T03:03:06;24.40;53.00
41437;DHT22;27178;49.460;10.850;2022-08-14T03:05:35;24.30;52.90
41437;DHT22;27178;49.460;10.850;2022-08-14T03:08:09;24.40;53.10
41437;DHT22;27178;49.460;10.850;2022-08-14T03:10:42;24.30;53.10
41437;DHT22;27178;49.460;10.850;2022-08-14T03:13:17;24.30;53.10
41437;DHT22;27178;49.460;10.850;2022-08-14T03:15:48;24.20;53.20
41437;DHT22;27178;49.460;10.850;2022-08-14T03:18:24;24.20;53.30
41437;DHT22;27178;49.460;10.850;2022-08-14T03:21:02;24.20;53.40
41437;DHT22;27178;49.460;10.850;2022-08-14T03:23:31;24.10;53.40
41437;DHT22;27178;49.460;10.850;2022-08-14T03:26:06;24.10;53.50
41437;DHT22;27178;49.460;10.850;2022-08-14T03:28:46;24.10;53.60
41437;DHT22;27178;49.460;10.850;2022-08-14T03:31:17;24.00;53.70
41437;DHT22;27178;49.460;10.850;2022-08-14T03:33:54;24.00;53.60
41437;DHT22;27178;49.460;10.850;2022-08-14T03:36:26;24.00;53.70
41437;DHT22;27178;49.460;10.850;2022-08-14T03:39:18;23.90;53.80
41437;DHT22;27178;49.460;10.850;2022-08-14T03:41:51;24.00;53.90
41437;DHT22;27178;49.460;10.850;2022-08-14T03:44:22;23.90;54.00
41437;DHT22;27178;49.460;10.850;2022-08-14T03:47:11;23.90;53.90
41437;DHT22;27178;49.460;10.850;2022-08-14T03:49:42;23.90;53.90
41437;DHT22;27178;49.460;10.850;2022-08-14T03:52:16;23.90;53.90
41437;DHT22;27178;49.460;10.850;2022-08-14T03:55:07;23.90;54.00
41437;DHT22;27178;49.460;10.850;2022-08-14T03:57:37;23.90;54.00
41437;DHT22;27178;49.460;10.850;2022-08-14T04:00:11;23.90;54.00
41437;DHT22;27178;49.460;10.850;2022-08-14T04:03:01;23.80;54.10
41437;DHT22;27178;49.460;10.850;2022-08-14T04:05:33;23.80;54.00
41437;DHT22;27178;49.460;10.850;2022-08-14T04:08:15;23.80;54.10
41437;DHT22;27178;49.460;10.850;2022-08-14T04:10:57;23.80;54.10
41437;DHT22;27178;49.460;10.850;2022-08-14T04:13:28;23.80;54.10
41437;DHT22;27178;49.460;10.850;2022-08-14T04:16:01;23.80;54.10
41437;DHT22;27178;49.460;10.850;2022-08-14T04:18:33;23.70;54.00
41437;DHT22;27178;49.460;10.850;2022-08-14T04:21:02;23.70;54.10
41437;DHT22;27178;49.460;10.850;2022-08-14T04:23:31;23.70;54.00
41437;DHT22;27178;49.460;10.850;2022-08-14T04:26:03;23.70;54.10
41437;DHT22;27178;49.460;10.850;2022-08-14T04:28:34;23.70;54.20
41437;DHT22;27178;49.460;10.850;2022-08-14T04:31:25;23.70;54.20
41437;DHT22;27178;49.460;10.850;2022-08-14T04:34:14;23.70;54.40
41437;DHT22;27178;49.460;10.850;2022-08-14T04:36:54;23.70;54.40
41437;DHT22;27178;49.460;10.850;2022-08-14T04:39:51;23.70;54.50
41437;DHT22;27178;49.460;10.850;2022-08-14T04:42:41;23.70;54.50
41437;DHT22;27178;49.460;10.850;2022-08-14T04:45:28;23.60;54.50
41437;DHT22;27178;49.460;10.850;2022-08-14T04:48:07;23.60;54.70
41437;DHT22;27178;49.460;10.850;2022-08-14T04:51:03;23.60;54.90
41437;DHT22;27178;49.460;10.850;2022-08-14T04:53:33;23.60;54.80
41437;DHT22;27178;49.460;10.850;2022-08-14T04:56:09;23.50;54.80
41437;DHT22;27178;49.460;10.850;2022-08-14T04:59:00;23.50;55.00
41437;DHT22;27178;49.460;10.850;2022-08-14T05:01:37;23.50;55.00
41437;DHT22;27178;49.460;10.850;2022-08-14T05:04:07;23.50;54.90
41437;DHT22;27178;49.460;10.850;2022-08-14T05:06:42;23.50;55.10
41437;DHT22;27178;49.460;10.850;2022-08-14T05:09:11;23.50;55.10
41437;DHT22;27178;49.460;10.850;2022-08-14T05:11:40;23.50;55.20
41437;DHT22;27178;49.460;10.850;2022-08-14T05:14:10;23.50;55.20
41437;DHT22;27178;49.460;10.850;2022-08-14T05:16:59;23.50;55.40
41437;DHT22;27178;49.460;10.850;2022-08-14T05:19:30;23.50;55.30
41437;DHT22;27178;49.460;10.850;2022-08-14T05:21:59;23.50;55.50
41437;DHT22;27178;49.460;10.850;2022-08-14T05:24:46;23.50;55.40
41437;DHT22;27178;49.460;10.850;2022-08-14T05:27:17;23.50;55.40
41437;DHT22;27178;49.460;10.850;2022-08-14T05:29:52;23.50;55.60
41437;DHT22;27178;49.460;10.850;2022-08-14T05:32:23;23.50;55.60
41437;DHT22;27178;49.460;10.850;2022-08-14T05:34:56;23.50;55.80
41437;DHT22;27178;49.460;10.850;2022-08-14T05:37:25;23.50;55.90
41437;DHT22;27178;49.460;10.850;2022-08-14T05:39:57;23.50;55.90
41437;DHT22;27178;49.460;10.850;2022-08-14T05:42:27;23.50;56.00
41437;DHT22;27178;49.460;10.850;2022-08-14T05:45:00;23.50;56.00
41437;DHT22;27178;49.460;10.850;2022-08-14T05:47:31;23.50;56.50
41437;DHT22;27178;49.460;10.850;2022-08-14T05:50:09;23.50;56.20
41437;DHT22;27178;49.460;10.850;2022-08-14T05:52:46;23.50;56.40
41437;DHT22;27178;49.460;10.850;2022-08-14T05:55:17;23.50;56.30
41437;DHT22;27178;49.460;10.850;2022-08-14T05:57:52;23.50;56.30
41437;DHT22;27178;49.460;10.850;2022-08-14T06:00:26;23.50;56.40
41437;DHT22;27178;49.460;10.850;2022-08-14T06:03:05;23.60;56.50
41437;DHT22;27178;49.460;10.850;2022-08-14T06:05:36;22.30;55.80
41437;DHT22;27178;49.460;10.850;2022-08-14T06:08:12;23.60;56.50
41437;DHT22;27178;49.460;10.850;2022-08-14T06:11:03;23.60;56.70
41437;DHT22;27178;49.460;10.850;2022-08-14T06:13:34;23.70;56.60
41437;DHT22;27178;49.460;10.850;2022-08-14T06:16:13;23.70;56.60
41437;DHT22;27178;49.460;10.850;2022-08-14T06:18:46;23.70;56.60
41437;DHT22;27178;49.460;10.850;2022-08-14T06:21:20;23.80;56.70
41437;DHT22;27178;49.460;10.850;2022-08-14T06:23:49;23.80;56.70
41437;DHT22;27178;49.460;10.850;2022-08-14T06:26:17;23.80;56.80
41437;DHT22;27178;49.460;10.850;2022-08-14T06:28:48;23.90;56.80
41437;DHT22;27178;49.460;10.850;2022-08-14T06:31:18;23.90;56.90
41437;DHT22;27178;49.460;10.850;2022-08-14T06:33:48;24.00;57.20
41437;DHT22;27178;49.460;10.850;2022-08-14T06:36:38;24.10;57.10
41437;DHT22;27178;49.460;10.850;2022-08-14T06:39:07;24.10;57.10
41437;DHT22;27178;49.460;10.850;2022-08-14T06:41:36;24.20;57.10
41437;DHT22;27178;49.460;10.850;2022-08-14T06:44:26;24.20;57.10
41437;DHT22;27178;49.460;10.850;2022-08-14T06:46:59;24.30;57.10
41437;DHT22;27178;49.460;10.850;2022-08-14T06:49:27;24.30;57.10
41437;DHT22;27178;49.460;10.850;2022-08-14T06:51:57;24.40;57.00
41437;DHT22;27178;49.460;10.850;2022-08-14T06:54:27;24.40;57.00
41437;DHT22;27178;49.460;10.850;2022-08-14T06:56:57;24.50;56.90
41437;DHT22;27178;49.460;10.850;2022-08-14T06:59:25;24.50;56.80
41437;DHT22;27178;49.460;10.850;2022-08-14T07:01:53;24.60;57.00
41437;DHT22;27178;49.460;10.850;2022-08-14T07:04:43;24.70;56.90
41437;DHT22;27178;49.460;10.850;2022-08-14T07:07:38;24.70;57.00
41437;DHT22;27178;49.460;10.850;2022-08-14T07:10:08;24.80;57.40
41437;DHT22;27178;49.460;10.850;2022-08-14T07:12:43;24.80;56.40
41437;DHT22;27178;49.460;10.850;2022-08-14T07:15:29;24.90;56.50
41437;DHT22;27178;49.460;10.850;2022-08-14T07:18:00;25.00;56.50
41437;DHT22;27178;49.460;10.850;2022-08-14T07:20:35;24.90;56.90
41437;DHT22;27178;49.460;10.850;2022-08-14T07:23:05;25.00;56.40
41437;DHT22;27178;49.460;10.850;2022-08-14T07:25:48;25.10;55.80
41437;DHT22;27178;49.460;10.850;2022-08-14T07:28:23;25.10;55.20
41437;DHT22;27178;49.460;10.850;2022-08-14T07:30:54;25.20;54.70
41437;DHT22;27178;49.460;10.850;2022-08-14T07:33:34;25.30;54.90
41437;DHT22;27178;49.460;10.850;2022-08-14T07:36:09;25.30;54.30
41437;DHT22;27178;49.460;10.850;2022-08-14T07:38:57;25.30;54.00
41437;DHT22;27178;49.460;10.850;2022-08-14T07:41:26;25.40;53.20
41437;DHT22;27178;49.460;10.850;2022-08-14T07:44:00;25.40;53.30
41437;DHT22;27178;49.460;10.850;2022-08-14T07:46:49;25.40;53.00
41437;DHT22;27178;49.460;10.850;2022-08-14T07:49:17;25.40;52.80
41437;DHT22;27178;49.460;10.850;2022-08-14T07:51:50;25.50;52.70
41437;DHT22;27178;49.460;10.850;2022-08-14T07:54:20;25.50;52.20
41437;DHT22;27178;49.460;10.850;2022-08-14T07:56:56;25.50;52.20
41437;DHT22;27178;49.460;10.850;2022-08-14T07:59:26;25.50;52.10
41437;DHT22;27178;49.460;10.850;2022-08-14T08:02:09;25.50;52.60
41437;DHT22;27178;49.460;10.850;2022-08-14T08:04:47;25.60;53.20
41437;DHT22;27178;49.460;10.850;2022-08-14T08:07:21;25.60;52.40
41437;DHT22;27178;49.460;10.850;2022-08-14T08:09:59;25.60;52.00
41437;DHT22;27178;49.460;10.850;2022-08-14T08:13:12;25.60;51.90
41437;DHT22;27178;49.460;10.850;2022-08-14T08:15:43;25.70;51.60
41437;DHT22;27178;49.460;10.850;2022-08-14T08:18:14;25.70;52.40
41437;DHT22;27178;49.460;10.850;2022-08-14T08:20:54;25.70;51.90
41437;DHT22;27178;49.460;10.850;2022-08-14T08:23:26;25.70;51.80
41437;DHT22;27178;49.460;10.850;2022-08-14T08:26:10;25.80;52.00
41437;DHT22;27178;49.460;10.850;2022-08-14T08:28:40;25.80;51.00
41437;DHT22;27178;49.460;10.850;2022-08-14T08:31:09;25.80;51.30
41437;DHT22;27178;49.460;10.850;2022-08-14T08:33:40;25.80;51.00
41437;DHT22;27178;49.460;10.850;2022-08-14T08:36:15;25.90;50.70
41437;DHT22;27178;49.460;10.850;2022-08-14T08:38:46;25.90;50.40
41437;DHT22;27178;49.460;10.850;2022-08-14T08:41:41;25.90;50.50
41437;DHT22;27178;49.460;10.850;2022-08-14T08:44:10;26.00;50.20
41437;DHT22;27178;49.460;10.850;2022-08-14T08:46:57;26.00;51.20
41437;DHT22;27178;49.460;10.850;2022-08-14T08:49:37;26.10;51.10
41437;DHT22;27178;49.460;10.850;2022-08-14T08:52:25;26.10;50.90
41437;DHT22;27178;49.460;10.850;2022-08-14T08:54:58;26.10;51.10
41437;DHT22;27178;49.460;10.850;2022-08-14T08:57:34;26.20;50.90
41437;DHT22;27178;49.460;10.850;2022-08-14T09:00:12;26.20;50.00
41437;DHT22;27178;49.460;10.850;2022-08-14T09:02:53;26.30;50.40
41437;DHT22;27178;49.460;10.850;2022-08-14T09:05:24;26.30;51.30
41437;DHT22;27178;49.460;10.850;2022-08-14T09:07:52;26.40;50.40
41437;DHT22;27178;49.460;10.850;2022-08-14T09:10:22;26.40;51.40
41437;DHT22;27178;49.460;10.850;2022-08-14T09:12:54;26.40;50.60
41437;DHT22;27178;49.460;10.850;2022-08-14T09:15:23;26.40;49.80
41437;DHT22;27178;49.460;10.850;2022-08-14T09:18:02;26.50;50.10
41437;DHT22;27178;49.460;10.850;2022-08-14T09:20:31;26.60;50.00
41437;DHT22;27178;49.460;10.850;2022-08-14T09:23:03;26.60;49.40
41437;DHT22;27178;49.460;10.850;2022-08-14T09:25:33;26.60;49.70
41437;DHT22;27178;49.460;10.850;2022-08-14T09:28:23;26.60;49.90
41437;DHT22;27178;49.460;10.850;2022-08-14T09:30:55;26.70;49.90
41437;DHT22;27178;49.460;10.850;2022-08-14T09:34:07;26.70;49.30
41437;DHT22;27178;49.460;10.850;2022-08-14T09:37:18;26.80;49.80
41437;DHT22;27178;49.460;10.850;2022-08-14T09:39:58;26.90;48.60
41437;DHT22;27178;49.460;10.850;2022-08-14T09:42:45;26.90;48.90
41437;DHT22;27178;49.460;10.850;2022-08-14T09:45:19;26.90;48.80
41437;DHT22;27178;49.460;10.850;2022-08-14T09:47:51;27.00;49.20
41437;DHT22;27178;49.460;10.850;2022-08-14T09:50:24;27.00;48.60
41437;DHT22;27178;49.460;10.850;2022-08-14T09:52:57;27.10;49.50
41437;DHT22;27178;49.460;10.850;2022-08-14T09:55:32;27.10;48.40
41437;DHT22;27178;49.460;10.850;2022-08-14T09:58:11;27.20;48.30
41437;DHT22;27178;49.460;10.850;2022-08-14T10:00:48;27.30;48.00
41437;DHT22;27178;49.460;10.850;2022-08-14T10:03:26;27.40;47.80
41437;DHT22;27178;49.460;10.850;2022-08-14T10:06:06;27.40;48.00
41437;DHT22;27178;49.460;10.850;2022-08-14T10:08:43;27.50;47.30
41437;DHT22;27178;49.460;10.850;2022-08-14T10:11:19;27.50;48.10
41437;DHT22;27178;49.460;10.850;2022-08-14T10:13:51;27.60;48.20
41437;DHT22;27178;49.460;10.850;2022-08-14T10:16:25;27.60;48.30
41437;DHT22;27178;49.460;10.850;2022-08-14T10:19:05;27.70;48.20
41437;DHT22;27178;49.460;10.850;2022-08-14T10:21:36;27.80;48.20
41437;DHT22;27178;49.460;10.850;2022-08-14T10:24:26;28.00;48.30
41437;DHT22;27178;49.460;10.850;2022-08-14T10:27:03;28.10;48.40
41437;DHT22;27178;49.460;10.850;2022-08-14T10:29:32;28.20;48.20
41437;DHT22;27178;49.460;10.850;2022-08-14T10:32:04;28.40;48.20
41437;DHT22;27178;49.460;10.850;2022-08-14T10:34:45;28.50;48.00
41437;DHT22;27178;49.460;10.850;2022-08-14T10:37:18;28.60;47.80
41437;DHT22;27178;49.460;10.850;2022-08-14T10:39:57;28.80;47.60
41437;DHT22;27178;49.460;10.850;2022-08-14T10:42:37;28.90;47.20
41437;DHT22;27178;49.460;10.850;2022-08-14T10:45:17;29.00;47.20
41437;DHT22;27178;49.460;10.850;2022-08-14T10:47:49;29.10;46.80
41437;DHT22;27178;49.460;10.850;2022-08-14T10:50:40;29.10;46.90
41437;DHT22;27178;49.460;10.850;2022-08-14T10:53:12;29.20;47.10
41437;DHT22;27178;49.460;10.850;2022-08-14T10:55:42;29.30;47.00
41437;DHT22;27178;49.460;10.850;2022-08-14T10:58:12;29.40;46.80
41437;DHT22;27178;49.460;10.850;2022-08-14T11:00:55;29.60;46.80
41437;DHT22;27178;49.460;10.850;2022-08-14T11:03:38;29.70;46.40
41437;DHT22;27178;49.460;10.850;2022-08-14T11:06:23;29.80;46.40
41437;DHT22;27178;49.460;10.850;2022-08-14T11:08:53;29.90;46.40
41437;DHT22;27178;49.460;10.850;2022-08-14T11:11:23;30.00;46.10
41437;DHT22;27178;49.460;10.850;2022-08-14T11:14:03;30.10;46.00
41437;DHT22;27178;49.460;10.850;2022-08-14T11:16:35;30.30;45.90
41437;DHT22;27178;49.460;10.850;2022-08-14T11:19:08;30.40;45.70
41437;DHT22;27178;49.460;10.850;2022-08-14T11:21:40;30.50;45.40
41437;DHT22;27178;49.460;10.850;2022-08-14T11:24:13;30.50;45.40
41437;DHT22;27178;49.460;10.850;2022-08-14T11:27:04;30.60;45.20
41437;DHT22;27178;49.460;10.850;2022-08-14T11:29:33;30.70;45.00
41437;DHT22;27178;49.460;10.850;2022-08-14T11:32:02;30.70;44.70
41437;DHT22;27178;49.460;10.850;2022-08-14T11:34:36;30.70;44.90
41437;DHT22;27178;49.460;10.850;2022-08-14T11:37:09;30.70;44.80
41437;DHT22;27178;49.460;10.850;2022-08-14T11:39:57;30.60;44.70
41437;DHT22;27178;49.460;10.850;2022-08-14T11:42:27;30.70;44.80
41437;DHT22;27178;49.460;10.850;2022-08-14T11:45:16;30.70;44.80
41437;DHT22;27178;49.460;10.850;2022-08-14T11:47:49;30.90;45.00
41437;DHT22;27178;49.460;10.850;2022-08-14T11:50:39;31.00;44.70
41437;DHT22;27178;49.460;10.850;2022-08-14T11:53:18;31.10;44.60
41437;DHT22;27178;49.460;10.850;2022-08-14T11:55:54;31.10;44.20
41437;DHT22;27178;49.460;10.850;2022-08-14T11:58:26;31.30;44.10
41437;DHT22;27178;49.460;10.850;2022-08-14T12:00:58;31.40;44.30
41437;DHT22;27178;49.460;10.850;2022-08-14T12:03:37;31.50;44.30
41437;DHT22;27178;49.460;10.850;2022-08-14T12:06:20;31.60;43.90
41437;DHT22;27178;49.460;10.850;2022-08-14T12:09:04;31.70;43.90
41437;DHT22;27178;49.460;10.850;2022-08-14T12:11:38;31.90;43.80
41437;DHT22;27178;49.460;10.850;2022-08-14T12:14:14;32.00;43.60
41437;DHT22;27178;49.460;10.850;2022-08-14T12:17:01;32.20;43.40
41437;DHT22;27178;49.460;10.850;2022-08-14T12:19:46;32.40;43.10
41437;DHT22;27178;49.460;10.850;2022-08-14T12:22:19;32.50;42.60
41437;DHT22;27178;49.460;10.850;2022-08-14T12:24:59;32.70;42.60
41437;DHT22;27178;49.460;10.850;2022-08-14T12:27:38;32.80;42.50
41437;DHT22;27178;49.460;10.850;2022-08-14T12:30:31;32.80;42.10
41437;DHT22;27178;49.460;10.850;2022-08-14T12:33:17;32.80;41.60
41437;DHT22;27178;49.460;10.850;2022-08-14T12:35:50;32.90;41.90
41437;DHT22;27178;49.460;10.850;2022-08-14T12:38:35;32.90;41.90
41437;DHT22;27178;49.460;10.850;2022-08-14T12:41:09;33.00;41.80
41437;DHT22;27178;49.460;10.850;2022-08-14T12:43:49;33.10;41.60
41437;DHT22;27178;49.460;10.850;2022-08-14T12:46:23;33.20;41.40
41437;DHT22;27178;49.460;10.850;2022-08-14T12:48:55;33.30;41.40
41437;DHT22;27178;49.460;10.850;2022-08-14T12:51:25;33.40;41.10
41437;DHT22;27178;49.460;10.850;2022-08-14T12:53:58;33.30;40.90
41437;DHT22;27178;49.460;10.850;2022-08-14T12:56:27;33.40;40.80
41437;DHT22;27178;49.460;10.850;2022-08-14T12:59:00;33.30;40.60
41437;DHT22;27178;49.460;10.850;2022-08-14T13:01:32;33.40;40.90
41437;DHT22;27178;49.460;10.850;2022-08-14T13:04:20;33.50;40.70
41437;DHT22;27178;49.460;10.850;2022-08-14T13:06:50;33.50;40.60
41437;DHT22;27178;49.460;10.850;2022-08-14T13:09:21;33.50;40.30
41437;DHT22;27178;49.460;10.850;2022-08-14T13:12:04;33.40;40.20
41437;DHT22;27178;49.460;10.850;2022-08-14T13:14:56;33.30;40.00
41437;DHT22;27178;49.460;10.850;2022-08-14T13:17:26;33.30;40.00
41437;DHT22;27178;49.460;10.850;2022-08-14T13:20:04;33.20;40.00
41437;DHT22;27178;49.460;10.850;2022-08-14T13:22:37;33.20;40.20
41437;DHT22;27178;49.460;10.850;2022-08-14T13:25:11;33.30;40.40
41437;DHT22;27178;49.460;10.850;2022-08-14T13:27:44;33.40;40.20
41437;DHT22;27178;49.460;10.850;2022-08-14T13:30:13;33.50;40.20
41437;DHT22;27178;49.460;10.850;2022-08-14T13:32:50;33.70;40.30
41437;DHT22;27178;49.460;10.850;2022-08-14T13:35:19;33.90;40.20
41437;DHT22;27178;49.460;10.850;2022-08-14T13:37:49;34.10;39.90
41437;DHT22;27178;49.460;10.850;2022-08-14T13:40:22;34.30;39.80
41437;DHT22;27178;49.460;10.850;2022-08-14T13:42:53;34.40;39.20
41437;DHT22;27178;49.460;10.850;2022-08-14T13:45:24;34.70;39.10
41437;DHT22;27178;49.460;10.850;2022-08-14T13:48:13;34.80;39.00
41437;DHT22;27178;49.460;10.850;2022-08-14T13:50:59;35.00;38.80
41437;DHT22;27178;49.460;10.850;2022-08-14T13:53:29;35.20;38.60
41437;DHT22;27178;49.460;10.850;2022-08-14T13:56:05;35.30;38.40
41437;DHT22;27178;49.460;10.850;2022-08-14T13:58:56;35.50;38.00
41437;DHT22;27178;49.460;10.850;2022-08-14T14:01:26;35.60;37.70
41437;DHT22;27178;49.460;10.850;2022-08-14T14:04:03;35.70;37.40
41437;DHT22;27178;49.460;10.850;2022-08-14T14:06:37;35.90;37.50
41437;DHT22;27178;49.460;10.850;2022-08-14T14:09:06;36.00;37.20
41437;DHT22;27178;49.460;10.850;2022-08-14T14:11:38;36.00;37.10
41437;DHT22;27178;49.460;10.850;2022-08-14T14:14:07;36.10;37.90
41437;DHT22;27178;49.460;10.850;2022-08-14T14:16:58;36.20;36.80
41437;DHT22;27178;49.460;10.850;2022-08-14T14:19:28;36.30;36.80
41437;DHT22;27178;49.460;10.850;2022-08-14T14:22:00;36.40;36.30
41437;DHT22;27178;49.460;10.850;2022-08-14T14:24:29;36.50;36.10
41437;DHT22;27178;49.460;10.850;2022-08-14T14:27:03;36.50;36.00
41437;DHT22;27178;49.460;10.850;2022-08-14T14:29:55;36.50;35.80
41437;DHT22;27178;49.460;10.850;2022-08-14T14:32:27;36.50;35.40
41437;DHT22;27178;49.460;10.850;2022-08-14T14:34:59;36.50;35.40
41437;DHT22;27178;49.460;10.850;2022-08-14T14:37:32;36.40;35.20
41437;DHT22;27178;49.460;10.850;2022-08-14T14:40:08;36.30;35.40
41437;DHT22;27178;49.460;10.850;2022-08-14T14:43:02;36.20;35.30
41437;DHT22;27178;49.460;10.850;2022-08-14T14:45:31;36.10;35.20
41437;DHT22;27178;49.460;10.850;2022-08-14T14:48:02;36.00;35.40
41437;DHT22;27178;49.460;10.850;2022-08-14T14:50:36;35.90;35.30
41437;DHT22;27178;49.460;10.850;2022-08-14T14:53:07;35.90;35.50
41437;DHT22;27178;49.460;10.850;2022-08-14T14:55:40;35.80;35.70
41437;DHT22;27178;49.460;10.850;2022-08-14T14:58:31;35.80;35.40
41437;DHT22;27178;49.460;10.850;2022-08-14T15:01:02;35.70;35.60
41437;DHT22;27178;49.460;10.850;2022-08-14T15:03:34;35.70;35.70
41437;DHT22;27178;49.460;10.850;2022-08-14T15:06:05;35.70;35.80
41437;DHT22;27178;49.460;10.850;2022-08-14T15:08:34;35.60;35.70
41437;DHT22;27178;49.460;10.850;2022-08-14T15:11:23;35.60;35.80
41437;DHT22;27178;49.460;10.850;2022-08-14T15:13:58;35.50;35.40
41437;DHT22;27178;49.460;10.850;2022-08-14T15:16:26;35.50;35.30
41437;DHT22;27178;49.460;10.850;2022-08-14T15:18:54;35.50;35.70
41437;DHT22;27178;49.460;10.850;2022-08-14T15:21:23;35.40;35.80
41437;DHT22;27178;49.460;10.850;2022-08-14T15:23:53;35.40;35.70
41437;DHT22;27178;49.460;10.850;2022-08-14T15:26:21;35.40;35.70
41437;DHT22;27178;49.460;10.850;2022-08-14T15:29:01;35.30;35.70
41437;DHT22;27178;49.460;10.850;2022-08-14T15:31:32;35.30;35.60
41437;DHT22;27178;49.460;10.850;2022-08-14T15:34:02;34.70;35.40
41437;DHT22;27178;49.460;10.850;2022-08-14T15:37:03;35.20;35.60
41437;DHT22;27178;49.460;10.850;2022-08-14T15:39:38;35.20;35.60
41437;DHT22;27178;49.460;10.850;2022-08-14T15:42:08;35.20;35.70
41437;DHT22;27178;49.460;10.850;2022-08-14T15:44:44;35.10;35.70
41437;DHT22;27178;49.460;10.850;2022-08-14T15:47:28;35.00;35.80
41437;DHT22;27178;49.460;10.850;2022-08-14T15:49:57;35.00;35.70
41437;DHT22;27178;49.460;10.850;2022-08-14T15:52:28;35.00;35.90
41437;DHT22;27178;49.460;10.850;2022-08-14T15:55:03;34.90;35.80
41437;DHT22;27178;49.460;10.850;2022-08-14T15:57:34;34.90;35.90
41437;DHT22;27178;49.460;10.850;2022-08-14T16:00:07;34.90;35.80
41437;DHT22;27178;49.460;10.850;2022-08-14T16:03:13;34.90;35.80
41437;DHT22;27178;49.460;10.850;2022-08-14T16:05:43;34.90;35.80
41437;DHT22;27178;49.460;10.850;2022-08-14T16:08:13;35.00;35.90
41437;DHT22;27178;49.460;10.850;2022-08-14T16:10:55;34.90;35.80
41437;DHT22;27178;49.460;10.850;2022-08-14T16:13:24;34.90;35.80